createdAt,value
2022-11-24T00:00:52.916Z,1.52
2022-11-24T00:02:27.446Z,1.54
2022-11-24T00:04:08.503Z,1.56
2022-11-24T00:05:41.735Z,1.58
2022-11-24T00:07:16.138Z,1.59
2022-11-24T00:08:54.934Z,1.60
2022-11-24T00:13:19.240Z,1.62
2022-11-24T00:15:39.988Z,1.63
2022-11-24T00:17:50.457Z,1.64
2022-11-24T00:19:50.492Z,1.65
2022-11-24T00:22:14.018Z,1.67
2022-11-24T00:23:47.447Z,1.68
2022-11-24T00:27:49.225Z,1.68
2022-11-24T00:29:29.357Z,1.71
2022-11-24T00:30:53.670Z,1.73
2022-11-24T00:32:21.731Z,1.76
2022-11-24T00:33:47.314Z,1.77
2022-11-24T00:35:11.723Z,1.80
2022-11-24T00:36:36.738Z,1.81
2022-11-24T00:37:58.377Z,1.81
2022-11-24T00:39:20.643Z,1.83
2022-11-24T00:40:44.282Z,1.84
2022-11-24T00:42:06.812Z,1.86
2022-11-24T00:43:31.418Z,1.89
2022-11-24T00:44:57.222Z,1.89
2022-11-24T00:46:19.995Z,1.92
2022-11-24T00:47:48.368Z,1.93
2022-11-24T00:49:17.367Z,1.94
2022-11-24T00:50:38.881Z,1.97
2022-11-24T00:52:02.686Z,1.99
2022-11-24T00:53:32.319Z,1.99
2022-11-24T00:55:01.752Z,2.01
2022-11-24T00:56:25.436Z,2.02
2022-11-24T00:57:55.025Z,2.03
2022-11-24T00:59:47.997Z,2.04
2022-11-24T01:01:21.582Z,2.05
2022-11-24T01:02:52.234Z,2.08
2022-11-24T01:04:17.632Z,2.08
2022-11-24T01:05:44.419Z,2.10
2022-11-24T01:07:06.930Z,2.11
2022-11-24T01:08:32.865Z,2.12
2022-11-24T01:09:54.626Z,2.13
2022-11-24T01:11:24.304Z,2.14
2022-11-24T01:12:50.868Z,2.17
2022-11-24T01:14:22.939Z,2.18
2022-11-24T01:15:45.638Z,2.19
2022-11-24T01:17:09.993Z,2.20
2022-11-24T01:18:46.386Z,2.22
2022-11-24T01:24:14.746Z,2.23
2022-11-24T01:25:45.767Z,2.24
2022-11-24T01:27:09.870Z,2.26
2022-11-24T01:28:31.358Z,2.26
2022-11-24T01:29:56.970Z,2.27
2022-11-24T01:31:18.709Z,2.28
2022-11-24T01:32:47.886Z,2.29
2022-11-24T01:34:09.294Z,2.29
2022-11-24T01:35:32.036Z,2.31
2022-11-24T01:36:52.994Z,2.33
2022-11-24T01:38:18.631Z,2.33
2022-11-24T01:39:42.618Z,2.35
2022-11-24T01:41:05.265Z,2.35
2022-11-24T01:42:27.502Z,2.35
2022-11-24T01:43:49.284Z,2.37
2022-11-24T01:45:44.952Z,2.36
2022-11-24T01:47:21.317Z,2.38
2022-11-24T01:48:47.223Z,2.37
2022-11-24T01:50:15.959Z,2.38
2022-11-24T01:51:44.548Z,2.39
2022-11-24T01:53:07.168Z,2.39
2022-11-24T01:54:33.504Z,2.39
2022-11-24T01:55:55.469Z,2.41
2022-11-24T01:57:19.389Z,2.40
2022-11-24T01:58:43.926Z,2.39
2022-11-24T02:00:09.512Z,2.40
2022-11-24T02:01:39.535Z,2.39
2022-11-24T02:03:03.239Z,2.39
2022-11-24T02:04:34.998Z,2.37
2022-11-24T02:06:02.973Z,2.37
2022-11-24T02:07:51.207Z,2.36
2022-11-24T02:09:52.791Z,2.36
2022-11-24T02:11:42.920Z,2.36
2022-11-24T02:13:53.388Z,2.38
2022-11-24T02:18:29.850Z,2.39
2022-11-24T02:23:21.545Z,2.40
2022-11-24T02:28:20.044Z,2.39
2022-11-24T02:30:16.743Z,2.38
2022-11-24T02:33:58.247Z,2.40
2022-11-24T02:36:19.836Z,2.40
2022-11-24T02:38:01.166Z,2.42
2022-11-24T02:39:40.793Z,2.42
2022-11-24T02:41:19.597Z,2.43
2022-11-24T02:43:09.495Z,2.43
2022-11-24T02:44:58.425Z,2.44
2022-11-24T02:46:19.878Z,2.46
2022-11-24T02:47:42.135Z,2.47
2022-11-24T02:49:17.799Z,2.47
2022-11-24T02:50:40.174Z,2.48
2022-11-24T02:52:03.021Z,2.48
2022-11-24T02:53:25.512Z,2.49
2022-11-24T02:54:49.844Z,2.48
2022-11-24T02:56:15.465Z,2.48
2022-11-24T02:57:37.175Z,2.48
2022-11-24T02:59:02.887Z,2.48
2022-11-24T03:00:24.413Z,2.47
2022-11-24T03:01:47.058Z,2.46
2022-11-24T03:03:11.417Z,2.43
2022-11-24T03:07:46.055Z,2.39
2022-11-24T03:09:08.615Z,2.39
2022-11-24T03:10:31.165Z,2.39
2022-11-24T03:11:55.276Z,2.40
2022-11-24T03:13:17.426Z,2.42
2022-11-24T03:14:40.786Z,2.43
2022-11-24T03:16:05.806Z,2.44
2022-11-24T03:17:30.714Z,2.47
2022-11-24T03:18:53.523Z,2.48
2022-11-24T03:20:22.553Z,2.51
2022-11-24T03:22:03.771Z,2.53
2022-11-24T03:23:30.431Z,2.56
2022-11-24T03:25:48.516Z,2.58
2022-11-24T03:27:19.323Z,2.61
2022-11-24T03:28:41.323Z,2.64
2022-11-24T03:30:03.504Z,2.66
2022-11-24T03:31:25.204Z,2.69
2022-11-24T03:32:52.333Z,2.70
2022-11-24T03:34:13.545Z,2.73
2022-11-24T03:35:35.909Z,2.74
2022-11-24T03:36:58.772Z,2.76
2022-11-24T03:38:20.171Z,2.79
2022-11-24T03:39:42.933Z,2.81
2022-11-24T03:41:04.954Z,2.83
2022-11-24T03:42:28.637Z,2.86
2022-11-24T03:45:49.318Z,2.88
2022-11-24T03:47:14.248Z,2.91
2022-11-24T03:48:36.270Z,2.92
2022-11-24T03:49:58.369Z,2.93
2022-11-24T03:51:54.812Z,2.91
2022-11-24T03:56:53.551Z,2.88
2022-11-24T03:58:44.901Z,2.90
2022-11-24T04:00:24.237Z,2.90
2022-11-24T04:07:52.959Z,2.89
2022-11-24T04:23:53.453Z,2.77
2022-11-24T04:31:56.556Z,2.72
2022-11-24T04:36:58.309Z,2.71
2022-11-24T04:41:39.123Z,2.72
2022-11-24T04:58:31.586Z,2.65
2022-11-24T05:04:00.633Z,2.62
2022-11-24T05:11:19.996Z,2.49
2022-11-24T05:14:28.491Z,2.41
2022-11-24T05:17:14.494Z,2.33
2022-11-24T05:34:16.786Z,2.18
2022-11-24T06:16:33.741Z,2.22
2022-11-24T06:21:11.988Z,2.27
2022-11-24T06:22:39.631Z,2.27
2022-11-24T06:24:03.905Z,2.28
2022-11-24T06:25:26.589Z,2.28
2022-11-24T06:26:48.095Z,2.28
2022-11-24T06:28:18.122Z,2.28
2022-11-24T06:30:36.693Z,2.28
2022-11-24T06:32:06.748Z,2.31
2022-11-24T06:34:01.833Z,2.33
2022-11-24T06:36:04.212Z,2.36
2022-11-24T06:41:23.735Z,2.39
2022-11-24T06:42:59.919Z,2.40
2022-11-24T06:47:19.895Z,2.43
2022-11-24T06:49:01.738Z,2.44
2022-11-24T06:50:42.337Z,2.45
2022-11-24T06:52:28.423Z,2.47
2022-11-24T06:54:00.800Z,2.50
2022-11-24T06:55:33.909Z,2.50
2022-11-24T06:56:58.752Z,2.55
2022-11-24T06:58:21.508Z,2.56
2022-11-24T06:59:44.655Z,2.61
2022-11-24T07:01:07.905Z,2.64
2022-11-24T07:02:34.548Z,2.68
2022-11-24T07:03:58.586Z,2.72
2022-11-24T07:05:22.139Z,2.75
2022-11-24T07:06:44.702Z,2.79
2022-11-24T07:08:07.238Z,2.84
2022-11-24T07:09:29.182Z,2.88
2022-11-24T07:10:53.390Z,2.93
2022-11-24T07:12:18.092Z,2.98
2022-11-24T07:13:59.659Z,3.02
2022-11-24T07:15:22.316Z,3.06
2022-11-24T07:16:45.019Z,3.09
2022-11-24T07:18:12.611Z,3.13
2022-11-24T07:19:34.500Z,3.17
2022-11-24T07:20:56.888Z,3.21
2022-11-24T07:22:19.306Z,3.25
2022-11-24T07:23:48.539Z,3.29
2022-11-24T07:25:14.718Z,3.33
2022-11-24T07:26:38.414Z,3.37
2022-11-24T07:28:00.999Z,3.40
2022-11-24T07:29:22.839Z,3.44
2022-11-24T07:30:45.178Z,3.48
2022-11-24T07:32:13.778Z,3.50
2022-11-24T07:33:36.308Z,3.52
2022-11-24T07:34:57.731Z,3.54
2022-11-24T07:36:20.808Z,3.55
2022-11-24T07:37:50.849Z,3.58
2022-11-24T07:39:15.275Z,3.61
2022-11-24T07:40:39.363Z,3.63
2022-11-24T07:42:05.417Z,3.65
2022-11-24T07:43:27.697Z,3.69
2022-11-24T07:44:49.780Z,3.72
2022-11-24T07:46:51.792Z,3.75
2022-11-24T07:48:19.803Z,3.78
2022-11-24T07:49:41.808Z,3.80
2022-11-24T07:51:04.638Z,3.83
2022-11-24T07:52:27.058Z,3.83
2022-11-24T07:53:49.421Z,3.84
2022-11-24T07:55:11.858Z,3.87
2022-11-24T07:56:33.825Z,3.88
2022-11-24T07:58:00.706Z,3.90
2022-11-24T07:59:22.870Z,3.92
2022-11-24T08:00:45.700Z,3.95
2022-11-24T08:02:08.137Z,3.97
2022-11-24T08:03:30.306Z,3.99
2022-11-24T08:04:52.197Z,4.03
2022-11-24T08:06:31.884Z,4.06
2022-11-24T08:08:06.327Z,4.08
2022-11-24T08:09:46.528Z,4.12
2022-11-24T08:11:10.690Z,4.14
2022-11-24T08:12:33.159Z,4.17
2022-11-24T08:13:57.243Z,4.20
2022-11-24T08:15:20.024Z,4.22
2022-11-24T08:16:49.994Z,4.25
2022-11-24T08:18:14.280Z,4.27
2022-11-24T08:26:05.324Z,4.19
2022-11-24T08:27:27.890Z,4.15
2022-11-24T08:28:54.278Z,4.10
2022-11-24T08:30:18.460Z,4.07
2022-11-24T08:31:46.786Z,4.02
2022-11-24T08:33:09.451Z,3.99
2022-11-24T08:34:35.156Z,3.97
2022-11-24T08:35:58.021Z,3.94
2022-11-24T08:37:21.615Z,3.96
2022-11-24T08:38:44.906Z,3.96
2022-11-24T08:40:08.316Z,3.99
2022-11-24T08:41:31.532Z,4.00
2022-11-24T08:42:53.763Z,4.04
2022-11-24T08:44:18.339Z,4.09
2022-11-24T08:45:54.668Z,4.13
2022-11-24T08:47:19.992Z,4.18
2022-11-24T08:48:45.254Z,4.23
2022-11-24T08:50:08.244Z,4.27
2022-11-24T08:51:31.244Z,4.31
2022-11-24T08:52:55.746Z,4.36
2022-11-24T08:54:21.899Z,4.41
2022-11-24T08:55:44.179Z,4.45
2022-11-24T08:57:06.449Z,4.49
2022-11-24T08:58:29.586Z,4.51
2022-11-24T08:59:51.552Z,4.56
2022-11-24T09:01:17.998Z,4.59
2022-11-24T09:02:40.229Z,4.63
2022-11-24T09:04:02.580Z,4.66
2022-11-24T09:05:50.569Z,4.68
2022-11-24T09:07:07.562Z,4.70
2022-11-24T09:08:31.578Z,4.72
2022-11-24T09:09:53.762Z,4.74
2022-11-24T09:11:16.520Z,4.74
2022-11-24T09:12:38.776Z,4.77
2022-11-24T09:14:08.627Z,4.80
2022-11-24T09:15:39.268Z,4.83
2022-11-24T09:17:03.368Z,4.86
2022-11-24T09:18:30.689Z,4.90
2022-11-24T09:20:07.516Z,4.94
2022-11-24T09:21:36.383Z,5.00
2022-11-24T09:22:58.714Z,5.07
2022-11-24T09:24:22.256Z,5.11
2022-11-24T09:25:49.437Z,5.17
2022-11-24T09:27:11.279Z,5.23
2022-11-24T09:28:32.680Z,5.28
2022-11-24T09:29:57.776Z,5.34
2022-11-24T09:31:20.407Z,5.40
2022-11-24T09:32:43.712Z,5.45
2022-11-24T09:34:07.668Z,5.51
2022-11-24T09:35:29.515Z,5.56
2022-11-24T09:36:51.875Z,5.62
2022-11-24T09:38:14.171Z,5.67
2022-11-24T09:39:36.364Z,5.72
2022-11-24T09:41:13.030Z,5.75
2022-11-24T09:42:49.299Z,5.80
2022-11-24T09:45:05.437Z,5.88
2022-11-24T09:46:34.704Z,5.97
2022-11-24T09:48:02.261Z,6.04
2022-11-24T09:49:32.581Z,6.12
2022-11-24T09:50:55.686Z,6.20
2022-11-24T09:52:34.584Z,6.27
2022-11-24T09:54:07.213Z,6.37
2022-11-24T09:55:46.066Z,6.45
2022-11-24T09:57:13.705Z,6.54
2022-11-24T09:58:43.656Z,6.62
2022-11-24T10:02:03.566Z,6.81
2022-11-24T10:08:30.195Z,7.06
2022-11-24T10:12:54.473Z,7.30
2022-11-24T10:14:44.759Z,7.34
2022-11-24T10:16:16.929Z,7.33
2022-11-24T10:17:57.611Z,7.28
2022-11-24T10:19:38.310Z,7.24
2022-11-24T10:21:32.989Z,7.21
2022-11-24T10:23:13.041Z,7.19
2022-11-24T10:25:20.836Z,7.17
2022-11-24T10:28:23.797Z,7.05
2022-11-24T10:33:30.853Z,6.80
2022-11-24T10:35:12.976Z,6.70
2022-11-24T10:36:45.431Z,6.66
2022-11-24T10:38:31.756Z,6.62
2022-11-24T10:40:00.720Z,6.63
2022-11-24T10:41:34.508Z,6.64
2022-11-24T10:42:59.577Z,6.65
2022-11-24T10:44:23.656Z,6.67
2022-11-24T10:45:47.396Z,6.69
2022-11-24T10:47:26.795Z,6.71
2022-11-24T10:49:11.336Z,6.71
2022-11-24T10:50:42.162Z,6.72
2022-11-24T10:52:11.523Z,6.72
2022-11-24T10:53:43.661Z,6.74
2022-11-24T10:55:09.891Z,6.73
2022-11-24T10:56:52.636Z,6.73
2022-11-24T10:58:21.585Z,6.74
2022-11-24T11:02:41.635Z,6.77
2022-11-24T11:04:18.979Z,6.80
2022-11-24T11:05:55.873Z,6.80
2022-11-24T11:07:36.985Z,6.80
2022-11-24T11:09:32.500Z,6.80
2022-11-24T11:11:53.169Z,6.79
2022-11-24T11:13:38.271Z,6.76
2022-11-24T11:15:23.186Z,6.75
2022-11-24T11:16:51.014Z,6.76
2022-11-24T11:18:17.981Z,6.75
2022-11-24T11:19:50.262Z,6.74
2022-11-24T11:21:31.420Z,6.71
2022-11-24T11:22:57.948Z,6.72
2022-11-24T11:24:22.434Z,6.72
2022-11-24T11:25:52.095Z,6.71
2022-11-24T11:31:20.301Z,6.64
2022-11-24T11:38:47.104Z,6.54
2022-11-24T11:40:47.819Z,6.51
2022-11-24T11:42:53.763Z,6.50
2022-11-24T11:44:37.812Z,6.49
2022-11-24T11:46:10.129Z,6.47
2022-11-24T11:47:42.810Z,6.47
2022-11-24T11:49:08.968Z,6.47
2022-11-24T11:51:06.786Z,6.46
2022-11-24T11:53:13.633Z,6.46
2022-11-24T11:55:35.880Z,6.46
2022-11-24T11:57:18.862Z,6.47
2022-11-24T11:59:13.635Z,6.47
2022-11-24T12:00:44.474Z,6.50
2022-11-24T12:02:51.660Z,6.51
2022-11-24T12:08:31.333Z,6.58
2022-11-24T12:15:34.157Z,6.72
2022-11-24T12:17:05.661Z,6.76
2022-11-24T12:18:58.727Z,6.80
2022-11-24T12:21:12.719Z,6.84
2022-11-24T12:22:45.232Z,6.91
2022-11-24T12:24:24.813Z,6.96
2022-11-24T12:28:34.881Z,7.01
2022-11-24T12:30:11.288Z,7.05
2022-11-24T12:31:56.550Z,7.07
2022-11-24T12:34:18.830Z,7.08
2022-11-24T12:35:54.986Z,7.10
2022-11-24T12:38:20.699Z,7.10
2022-11-24T12:40:04.820Z,7.10
2022-11-24T12:56:52.857Z,6.88
2022-11-24T12:58:30.670Z,6.87
2022-11-24T13:00:18.501Z,6.85
2022-11-24T13:02:21.977Z,6.81
2022-11-24T13:04:07.431Z,6.81
2022-11-24T13:05:56.109Z,6.79
2022-11-24T13:07:23.213Z,6.76
2022-11-24T13:09:02.959Z,6.76
2022-11-24T13:10:56.343Z,6.72
2022-11-24T13:12:38.783Z,6.72
2022-11-24T13:14:49.106Z,6.69
2022-11-24T13:16:36.303Z,6.65
2022-11-24T13:18:12.453Z,6.64
2022-11-24T13:20:45.056Z,6.62
2022-11-24T13:22:56.368Z,6.57
2022-11-24T13:24:36.141Z,6.56
2022-11-24T13:26:31.427Z,6.54
2022-11-24T13:28:00.105Z,6.54
2022-11-24T13:29:43.519Z,6.52
2022-11-24T13:31:13.439Z,6.52
2022-11-24T13:33:08.230Z,6.51
2022-11-24T13:35:32.829Z,6.49
2022-11-24T13:39:41.169Z,6.47
2022-11-24T13:41:06.264Z,6.44
2022-11-24T13:43:04.156Z,6.40
2022-11-24T13:45:08.011Z,6.37
2022-11-24T13:47:27.153Z,6.31
2022-11-24T13:52:41.956Z,6.23
2022-11-24T14:01:31.859Z,6.15
2022-11-24T14:04:31.884Z,6.11
2022-11-24T14:06:25.177Z,6.11
2022-11-24T14:08:59.690Z,6.09
2022-11-24T14:11:31.446Z,6.07
2022-11-24T14:13:41.887Z,6.06
2022-11-24T14:16:01.223Z,6.04
2022-11-24T14:17:42.207Z,6.04
2022-11-24T14:19:13.242Z,6.03
2022-11-24T14:20:36.488Z,6.02
2022-11-24T14:21:59.144Z,6.01
2022-11-24T14:23:31.694Z,6.00
2022-11-24T14:25:07.669Z,5.99
2022-11-24T14:26:44.278Z,5.97
2022-11-24T14:28:31.741Z,5.96
2022-11-24T14:30:08.539Z,5.94
2022-11-24T14:31:36.577Z,5.92
2022-11-24T14:32:59.006Z,5.88
2022-11-24T14:34:41.308Z,5.86
2022-11-24T14:36:26.499Z,5.83
2022-11-24T14:37:49.292Z,5.82
2022-11-24T14:39:15.823Z,5.80
2022-11-24T14:40:46.589Z,5.78
2022-11-24T14:42:20.161Z,5.76
2022-11-24T14:43:43.092Z,5.75
2022-11-24T14:45:11.295Z,5.73
2022-11-24T14:46:36.166Z,5.71
2022-11-24T14:48:03.821Z,5.69
2022-11-24T14:49:36.090Z,5.65
2022-11-24T14:51:15.163Z,5.62
2022-11-24T14:52:46.667Z,5.60
2022-11-24T14:54:28.183Z,5.59
2022-11-24T14:56:21.505Z,5.55
2022-11-24T14:57:48.521Z,5.54
2022-11-24T14:59:26.610Z,5.51
2022-11-24T15:01:11.229Z,5.49
2022-11-24T15:02:44.413Z,5.46
2022-11-24T15:04:32.339Z,5.45
2022-11-24T15:06:04.617Z,5.41
2022-11-24T15:07:30.255Z,5.41
2022-11-24T15:08:52.957Z,5.39
2022-11-24T15:10:35.515Z,5.38
2022-11-24T15:12:48.406Z,5.33
2022-11-24T15:14:39.427Z,5.32
2022-11-24T15:16:04.952Z,5.32
2022-11-24T15:17:40.415Z,5.33
2022-11-24T15:19:12.090Z,5.31
2022-11-24T15:20:51.112Z,5.30
2022-11-24T15:22:38.171Z,5.28
2022-11-24T15:24:08.958Z,5.28
2022-11-24T15:25:37.498Z,5.28
2022-11-24T15:27:03.197Z,5.26
2022-11-24T15:28:29.842Z,5.25
2022-11-24T15:29:52.144Z,5.25
2022-11-24T15:31:30.960Z,5.24
2022-11-24T15:32:56.878Z,5.24
2022-11-24T15:36:35.206Z,5.22
2022-11-24T15:38:02.643Z,5.22
2022-11-24T15:39:24.999Z,5.21
2022-11-24T15:40:50.188Z,5.20
2022-11-24T15:42:14.531Z,5.19
2022-11-24T15:43:57.611Z,5.17
2022-11-24T15:45:24.089Z,5.15
2022-11-24T15:46:46.336Z,5.14
2022-11-24T15:48:12.372Z,5.14
2022-11-24T15:49:41.371Z,5.13
2022-11-24T15:51:07.486Z,5.13
2022-11-24T15:52:29.826Z,5.14
2022-11-24T15:54:00.401Z,5.14
2022-11-24T15:55:25.549Z,5.14
2022-11-24T15:56:50.509Z,5.15
2022-11-24T15:58:14.292Z,5.14
2022-11-24T15:59:39.372Z,5.14
2022-11-24T16:01:01.917Z,5.14
2022-11-24T16:02:29.053Z,5.12
2022-11-24T16:03:51.914Z,5.11
2022-11-24T16:05:27.304Z,5.10
2022-11-24T16:06:58.703Z,5.10
2022-11-24T16:08:21.179Z,5.10
2022-11-24T16:09:44.962Z,5.09
2022-11-24T16:11:06.467Z,5.08
2022-11-24T16:12:32.206Z,5.07
2022-11-24T16:13:54.934Z,5.07
2022-11-24T16:15:17.534Z,5.08
2022-11-24T16:16:41.183Z,5.07
2022-11-24T16:18:11.692Z,5.06
2022-11-24T16:19:41.675Z,5.06
2022-11-24T16:21:27.148Z,5.04
2022-11-24T16:23:07.057Z,5.02
2022-11-24T16:24:38.677Z,5.02
2022-11-24T16:26:09.154Z,5.02
2022-11-24T16:27:35.894Z,5.01
2022-11-24T16:29:04.584Z,5.01
2022-11-24T16:30:29.474Z,5.00
2022-11-24T16:31:59.332Z,5.01
2022-11-24T16:33:26.049Z,5.02
2022-11-24T16:34:50.164Z,5.01
2022-11-24T16:36:21.963Z,5.03
2022-11-24T16:37:51.859Z,5.03
2022-11-24T16:39:31.552Z,5.03
2022-11-24T16:48:37.246Z,5.03
2022-11-24T17:07:22.606Z,5.00
2022-11-24T17:08:55.274Z,5.01
2022-11-24T17:11:04.558Z,5.00
2022-11-24T17:13:03.451Z,5.01
2022-11-24T17:14:29.343Z,4.99
2022-11-24T17:16:01.340Z,5.00
2022-11-24T17:17:31.316Z,5.00
2022-11-24T17:19:02.036Z,5.02
2022-11-24T17:20:47.757Z,5.01
2022-11-24T17:22:18.031Z,5.02
2022-11-24T17:23:46.249Z,5.02
2022-11-24T17:25:11.546Z,5.03
2022-11-24T17:26:36.092Z,5.03
2022-11-24T17:29:01.033Z,5.03
2022-11-24T17:34:12.812Z,5.02
2022-11-24T17:36:04.894Z,5.01
2022-11-24T17:37:32.370Z,5.01
2022-11-24T17:38:54.241Z,5.02
2022-11-24T17:40:28.271Z,5.02
2022-11-24T17:42:03.966Z,5.00
2022-11-24T17:43:36.888Z,5.01
2022-11-24T17:45:02.052Z,5.01
2022-11-24T17:47:39.906Z,4.99
2022-11-24T17:52:43.473Z,4.94
2022-11-24T18:00:09.411Z,4.87
2022-11-24T18:01:39.660Z,4.82
2022-11-24T18:03:21.612Z,4.79
2022-11-24T18:04:47.191Z,4.76
2022-11-24T18:06:18.527Z,4.75
2022-11-24T18:07:43.378Z,4.73
2022-11-24T18:09:09.470Z,4.73
2022-11-24T18:10:38.770Z,4.73
2022-11-24T18:12:17.046Z,4.73
2022-11-24T18:13:56.603Z,4.73
2022-11-24T18:15:25.585Z,4.72
2022-11-24T18:16:53.344Z,4.72
2022-11-24T18:18:14.945Z,4.73
2022-11-24T18:22:50.077Z,4.73
2022-11-24T18:24:24.227Z,4.74
2022-11-24T18:26:01.981Z,4.73
2022-11-24T18:31:25.375Z,4.74
2022-11-24T18:33:24.680Z,4.73
2022-11-24T18:35:21.476Z,4.76
2022-11-24T18:36:53.634Z,4.77
2022-11-24T18:38:36.039Z,4.78
2022-11-24T18:40:16.229Z,4.79
2022-11-24T18:41:58.325Z,4.81
2022-11-24T18:43:20.971Z,4.84
2022-11-24T18:44:55.838Z,4.86
2022-11-24T18:47:24.879Z,4.87
2022-11-24T18:49:16.312Z,4.90
2022-11-24T18:51:15.079Z,4.93
2022-11-24T18:52:40.578Z,4.95
2022-11-24T18:54:06.946Z,4.96
2022-11-24T18:55:30.792Z,4.97
2022-11-24T18:56:53.386Z,4.99
2022-11-24T18:58:16.136Z,5.02
2022-11-24T18:59:38.496Z,5.03
2022-11-24T19:01:07.661Z,5.05
2022-11-24T19:02:30.254Z,5.06
2022-11-24T19:03:57.800Z,5.07
2022-11-24T19:05:27.531Z,5.10
2022-11-24T19:06:50.304Z,5.11
2022-11-24T19:08:12.584Z,5.13
2022-11-24T19:09:34.631Z,5.14
2022-11-24T19:10:58.128Z,5.14
2022-11-24T19:12:20.319Z,5.18
2022-11-24T19:13:42.417Z,5.20
2022-11-24T19:15:05.005Z,5.21
2022-11-24T19:16:27.877Z,5.22
2022-11-24T19:17:50.429Z,5.23
2022-11-24T19:19:15.435Z,5.23
2022-11-24T19:20:38.319Z,5.23
2022-11-24T19:22:03.129Z,5.26
2022-11-24T19:23:25.533Z,5.27
2022-11-24T19:24:47.917Z,5.26
2022-11-24T19:26:11.411Z,5.25
2022-11-24T19:27:35.479Z,5.27
2022-11-24T19:28:58.189Z,5.28
2022-11-24T19:30:20.923Z,5.28
2022-11-24T19:31:44.067Z,5.29
2022-11-24T19:33:08.565Z,5.30
2022-11-24T19:34:30.905Z,5.31
2022-11-24T19:36:00.872Z,5.30
2022-11-24T19:37:23.658Z,5.30
2022-11-24T19:38:51.351Z,5.32
2022-11-24T19:40:14.701Z,5.28
2022-11-24T19:41:38.303Z,5.28
2022-11-24T19:43:00.317Z,5.28
2022-11-24T19:44:25.571Z,5.26
2022-11-24T19:45:47.664Z,5.26
2022-11-24T19:47:11.755Z,5.25
2022-11-24T19:48:34.721Z,5.25
2022-11-24T19:49:57.215Z,5.24
2022-11-24T19:51:21.349Z,5.25
2022-11-24T19:53:01.626Z,5.24
2022-11-24T19:54:24.947Z,5.24
2022-11-24T19:55:48.986Z,5.24
2022-11-24T19:57:12.816Z,5.25
2022-11-24T19:58:36.823Z,5.24
2022-11-24T19:59:59.558Z,5.24
2022-11-24T20:01:23.374Z,5.25
2022-11-24T20:02:45.808Z,5.25
2022-11-24T20:04:10.504Z,5.25
2022-11-24T20:05:35.378Z,5.24
2022-11-24T20:07:00.413Z,5.23
2022-11-24T20:08:23.681Z,5.24
2022-11-24T20:09:47.483Z,5.22
2022-11-24T20:11:11.445Z,5.19
2022-11-24T20:12:35.655Z,5.17
2022-11-24T20:13:58.996Z,5.14
2022-11-24T20:15:24.038Z,5.11
2022-11-24T20:16:47.948Z,5.08
2022-11-24T20:18:10.698Z,5.05
2022-11-24T20:19:32.891Z,5.03
2022-11-24T20:20:55.154Z,5.02
2022-11-24T20:22:17.474Z,5.00
2022-11-24T20:23:46.360Z,4.99
2022-11-24T20:25:16.584Z,4.99
2022-11-24T20:26:43.956Z,4.99
2022-11-24T20:28:08.391Z,5.00
2022-11-24T20:29:34.426Z,5.00
2022-11-24T20:31:15.348Z,5.01
2022-11-24T20:32:40.667Z,5.01
2022-11-24T20:34:04.354Z,5.03
2022-11-24T20:35:26.348Z,5.04
2022-11-24T20:36:49.666Z,5.05
2022-11-24T20:38:11.683Z,5.06
2022-11-24T20:39:33.588Z,5.08
2022-11-24T20:41:08.953Z,5.09
2022-11-24T20:42:32.848Z,5.12
2022-11-24T20:44:08.722Z,5.12
2022-11-24T20:45:37.453Z,5.16
2022-11-24T20:47:01.427Z,5.18
2022-11-24T20:48:22.642Z,5.20
2022-11-24T20:49:47.791Z,5.23
2022-11-24T20:51:10.879Z,5.25
2022-11-24T20:52:35.138Z,5.28
2022-11-24T20:54:02.716Z,5.28
2022-11-24T20:55:25.183Z,5.29
2022-11-24T20:56:48.742Z,5.27
2022-11-24T20:58:28.498Z,5.27
2022-11-24T21:00:10.403Z,5.29
2022-11-24T21:01:42.771Z,5.29
2022-11-24T21:03:14.075Z,5.31
2022-11-24T21:04:47.711Z,5.32
2022-11-24T21:06:22.575Z,5.33
2022-11-24T21:07:45.221Z,5.34
2022-11-24T21:09:14.097Z,5.36
2022-11-24T21:10:50.911Z,5.38
2022-11-24T21:12:23.696Z,5.39
2022-11-24T21:13:47.873Z,5.42
2022-11-24T21:15:39.493Z,5.42
2022-11-24T21:17:05.296Z,5.45
2022-11-24T21:18:56.842Z,5.47
2022-11-24T21:20:29.826Z,5.49
2022-11-24T21:22:07.866Z,5.50
2022-11-24T21:23:30.645Z,5.53
2022-11-24T21:25:36.056Z,5.56
2022-11-24T21:27:24.494Z,5.58
2022-11-24T21:29:01.725Z,5.60
2022-11-24T21:30:28.222Z,5.63
2022-11-24T21:32:15.917Z,5.66
2022-11-24T21:33:58.034Z,5.67
2022-11-24T21:35:26.820Z,5.69
2022-11-24T21:36:52.614Z,5.72
2022-11-24T21:38:15.386Z,5.75
2022-11-24T21:39:37.831Z,5.76
2022-11-24T21:41:00.943Z,5.78
2022-11-24T21:42:26.214Z,5.81
2022-11-24T21:43:51.945Z,5.82
2022-11-24T21:45:16.573Z,5.83
2022-11-24T21:46:45.687Z,5.86
2022-11-24T21:48:10.042Z,5.88
2022-11-24T21:49:35.685Z,5.90
2022-11-24T21:51:06.124Z,5.90
2022-11-24T21:52:29.171Z,5.92
2022-11-24T21:53:51.612Z,5.94
2022-11-24T21:55:32.206Z,5.95
2022-11-24T21:56:55.887Z,5.96
2022-11-24T21:58:26.999Z,5.97
2022-11-24T22:00:06.142Z,5.99
2022-11-24T22:01:34.885Z,5.99
2022-11-24T22:02:57.525Z,5.99
2022-11-24T22:04:19.441Z,6.00
2022-11-24T22:05:41.841Z,6.00
2022-11-24T22:07:10.172Z,6.02
2022-11-24T22:08:32.609Z,6.03
2022-11-24T22:10:02.046Z,6.04
2022-11-24T22:11:33.001Z,6.06
2022-11-24T22:12:58.110Z,6.05
2022-11-24T22:14:22.921Z,6.07
2022-11-24T22:15:48.319Z,6.09
2022-11-24T22:17:16.979Z,6.10
2022-11-24T22:18:48.173Z,6.11
2022-11-24T22:20:13.499Z,6.12
2022-11-24T22:21:39.930Z,6.13
2022-11-24T22:23:00.820Z,6.13
2022-11-24T22:24:28.185Z,6.13
2022-11-24T22:25:52.008Z,6.12
2022-11-24T22:27:13.847Z,6.12
2022-11-24T22:28:37.212Z,6.13
2022-11-24T22:29:59.539Z,6.13
2022-11-24T22:31:22.775Z,6.13
2022-11-24T22:32:44.870Z,6.12
2022-11-24T22:34:08.888Z,6.13
2022-11-24T22:35:29.789Z,6.13
2022-11-24T22:36:51.758Z,6.14
2022-11-24T22:38:14.011Z,6.13
2022-11-24T22:39:35.718Z,6.12
2022-11-24T22:41:02.878Z,6.13
2022-11-24T22:42:27.631Z,6.14
2022-11-24T22:43:50.455Z,6.15
2022-11-24T22:45:12.909Z,6.15
2022-11-24T22:46:35.370Z,6.16
2022-11-24T22:47:58.404Z,6.17
2022-11-24T22:49:21.818Z,6.16
2022-11-24T22:50:42.937Z,6.17
2022-11-24T22:52:05.481Z,6.16
2022-11-24T22:53:26.733Z,6.18
2022-11-24T23:01:37.810Z,6.14
2022-11-24T23:03:01.813Z,6.14
2022-11-24T23:04:25.630Z,6.14
2022-11-24T23:05:46.855Z,6.14
2022-11-24T23:07:09.930Z,6.15
2022-11-24T23:08:33.338Z,6.15
2022-11-24T23:09:58.444Z,6.15
2022-11-24T23:11:31.686Z,6.15
2022-11-24T23:12:57.804Z,6.15
2022-11-24T23:14:20.882Z,6.17
2022-11-24T23:15:43.345Z,6.18
2022-11-24T23:17:10.167Z,6.18
2022-11-24T23:18:40.996Z,6.18
2022-11-24T23:20:08.816Z,6.18
2022-11-24T23:21:33.679Z,6.19
2022-11-24T23:23:00.018Z,6.19
2022-11-24T23:24:22.379Z,6.20
2022-11-24T23:25:43.386Z,6.20
2022-11-24T23:27:06.364Z,6.22
2022-11-24T23:31:09.353Z,6.20
2022-11-24T23:32:30.735Z,6.21
2022-11-24T23:33:55.724Z,6.20
2022-11-24T23:35:27.806Z,6.21
2022-11-24T23:36:50.217Z,6.21
2022-11-24T23:40:29.965Z,6.20
2022-11-24T23:41:51.197Z,6.20
2022-11-24T23:43:14.273Z,6.21
2022-11-24T23:44:36.745Z,6.22
2022-11-24T23:46:03.521Z,6.22
2022-11-24T23:47:25.621Z,6.23
2022-11-24T23:48:47.516Z,6.24
2022-11-24T23:50:10.389Z,6.24
2022-11-24T23:51:35.231Z,6.24
2022-11-24T23:52:56.390Z,6.24
2022-11-24T23:54:18.663Z,6.25
2022-11-24T23:55:39.690Z,6.24
2022-11-24T23:57:02.115Z,6.24
2022-11-24T23:58:22.711Z,6.22
2022-11-24T23:59:45.851Z,6.23
